Time;durP1;ratioP1;P1;durP2;ratioP2;P2;SDS_P1;SDS_P2;PMS_P1;PMS_P2;Temp;Humidity;BMP_temperature;BMP_pressure;BME280_temperature;BME280_humidity;BME280_pressure;Samples;Min_cycle;Max_cycle;Signal;HPM_P1;HPM_P2
2022/06/26 00:00:56;;;;;;;2.58;0.90;;;;;;;22.85;56.62;99309.81;4452277;32;33984;-84
2022/06/26 00:03:25;;;;;;;1.08;0.68;;;;;;;22.58;57.75;99315.22;4460901;32;34706;-83
2022/06/26 00:05:54;;;;;;;1.12;0.85;;;;;;;22.68;56.91;99320.72;4460769;32;33771;-84
2022/06/26 00:08:25;;;;;;;1.17;0.70;;;;;;;22.87;56.77;99320.28;4457425;32;32379;-83
2022/06/26 00:10:54;;;;;;;0.80;0.62;;;;;;;22.92;56.60;99321.66;4456836;32;33970;-83
2022/06/26 00:13:23;;;;;;;0.65;0.65;;;;;;;22.68;57.47;99320.72;4456460;32;33202;-83
2022/06/26 00:15:53;;;;;;;1.20;0.93;;;;;;;22.58;57.92;99329.28;4454377;32;34397;-84
2022/06/26 00:18:22;;;;;;;2.25;0.80;;;;;;;22.78;57.13;99341.16;4449768;32;33184;-83
2022/06/26 00:20:51;;;;;;;1.25;0.90;;;;;;;22.50;57.83;99334.25;4456698;32;34417;-84
2022/06/26 00:23:20;;;;;;;0.60;0.60;;;;;;;22.75;57.25;99337.84;4457283;32;33237;-83
2022/06/26 00:25:49;;;;;;;0.95;0.75;;;;;;;22.88;56.83;99346.66;4459586;32;33819;-83
2022/06/26 00:28:18;;;;;;;0.75;0.65;;;;;;;22.79;57.09;99342.81;4452067;32;34855;-83
2022/06/26 00:30:47;;;;;;;2.53;0.90;;;;;;;22.56;57.83;99338.25;4464801;32;34629;-83
2022/06/26 00:33:17;;;;;;;0.95;0.70;;;;;;;22.76;57.30;99350.97;4458943;32;33258;-83
2022/06/26 00:35:46;;;;;;;1.13;0.90;;;;;;;22.52;58.09;99353.50;4454892;32;33835;-83
2022/06/26 00:38:15;;;;;;;0.88;0.70;;;;;;;22.43;58.32;99356.75;4458094;32;33739;-85
2022/06/26 00:40:44;;;;;;;1.33;1.02;;;;;;;22.52;58.25;99350.88;4457638;32;34139;-83
2022/06/26 00:43:13;;;;;;;1.00;0.90;;;;;;;22.91;56.55;99354.34;4462516;32;34205;-83
2022/06/26 00:45:42;;;;;;;1.20;0.70;;;;;;;22.68;57.48;99352.44;4453334;32;33669;-84
2022/06/26 00:48:11;;;;;;;0.98;0.70;;;;;;;22.49;58.51;99355.50;4456822;32;33970;-83
2022/06/26 00:50:41;;;;;;;0.88;0.70;;;;;;;22.46;58.65;99353.91;4456703;32;35239;-83
2022/06/26 00:53:10;;;;;;;1.00;0.80;;;;;;;22.53;57.98;99347.25;4456604;32;33254;-83
2022/06/26 00:55:40;;;;;;;1.63;0.77;;;;;;;22.68;57.27;99353.28;4467473;32;33684;-85
2022/06/26 00:58:09;;;;;;;0.73;0.70;;;;;;;22.58;57.68;99350.44;4463097;32;33814;-83
2022/06/26 01:00:38;;;;;;;0.70;0.70;;;;;;;22.27;58.39;99358.75;4454063;32;33999;-84
2022/06/26 01:03:07;;;;;;;1.30;0.80;;;;;;;22.42;57.94;99368.28;4446836;32;33302;-84
2022/06/26 01:05:36;;;;;;;1.35;0.85;;;;;;;22.28;58.26;99373.66;4449714;32;33928;-85
2022/06/26 01:08:07;;;;;;;0.93;0.80;;;;;;;22.16;58.52;99377.94;4459173;32;34044;-85
2022/06/26 01:10:38;;;;;;;1.40;0.80;;;;;;;22.16;58.36;99368.19;4458712;32;33613;-83
2022/06/26 01:13:07;;;;;;;1.15;0.75;;;;;;;22.29;58.01;99367.41;4462106;32;33872;-83
2022/06/26 01:15:37;;;;;;;1.20;0.93;;;;;;;22.37;57.83;99367.75;4458788;32;34468;-83
2022/06/26 01:18:06;;;;;;;1.73;1.08;;;;;;;22.23;58.09;99362.53;4460535;32;33608;-83
2022/06/26 01:20:35;;;;;;;2.12;1.10;;;;;;;22.25;57.94;99364.12;4463740;32;34448;-85
2022/06/26 01:23:06;;;;;;;0.85;0.70;;;;;;;22.39;57.52;99373.78;4464294;32;33791;-83
2022/06/26 01:25:43;;;;;;;1.33;1.08;;;;;;;22.24;57.98;99380.09;4459431;32;33517;-83
2022/06/26 01:28:12;;;;;;;0.82;0.73;;;;;;;22.12;58.31;99376.44;4460496;32;33929;-84
2022/06/26 01:30:41;;;;;;;0.80;0.70;;;;;;;21.96;58.83;99379.22;4458620;32;34634;-84
2022/06/26 01:33:11;;;;;;;1.10;0.88;;;;;;;22.15;58.15;99378.84;4460853;32;33411;-84
2022/06/26 01:35:40;;;;;;;0.95;0.80;;;;;;;21.80;59.31;99371.47;4462875;32;34270;-85
2022/06/26 01:38:14;;;;;;;1.20;0.93;;;;;;;21.80;59.31;99370.63;4455280;32;33891;-83
2022/06/26 01:40:45;;;;;;;1.15;0.90;;;;;;;21.60;59.96;99364.84;4462076;32;33607;-84
2022/06/26 01:43:15;;;;;;;2.10;0.95;;;;;;;21.65;59.86;99370.66;4448500;32;33302;-84
2022/06/26 01:45:44;;;;;;;1.23;1.00;;;;;;;21.56;59.97;99373.03;4458654;32;33896;-83
2022/06/26 01:48:13;;;;;;;1.48;1.00;;;;;;;21.65;59.70;99372.44;4459924;32;33106;-83
2022/06/26 01:50:43;;;;;;;2.20;1.00;;;;;;;21.71;59.38;99375.53;4461923;32;34475;-83
2022/06/26 01:53:15;;;;;;;1.83;1.10;;;;;;;21.60;59.71;99383.31;4456573;32;33024;-84
2022/06/26 01:55:44;;;;;;;3.65;1.30;;;;;;;21.46;59.74;99384.19;4451022;32;34500;-84
2022/06/26 01:58:14;;;;;;;1.52;1.00;;;;;;;21.39;60.11;99382.88;4455875;32;33656;-83
2022/06/26 02:00:46;;;;;;;1.17;1.08;;;;;;;21.56;59.70;99387.06;4467026;32;31566;-83
2022/06/26 02:03:17;;;;;;;1.42;1.10;;;;;;;21.47;59.83;99383.22;4462331;32;33142;-83
2022/06/26 02:05:46;;;;;;;;;;;;;;;21.37;60.23;99383.87;4460285;32;33595;-83
2022/06/26 02:08:16;;;;;;;1.08;0.88;;;;;;;21.47;59.80;99390.28;4448635;32;34182;-84
2022/06/26 02:13:37;;;;;;;1.67;1.00;;;;;;;21.29;60.48;99387.00;4463858;32;33251;-83
2022/06/26 02:16:10;;;;;;;1.15;0.95;;;;;;;21.36;60.20;99392.72;4468129;32;34316;-83
2022/06/26 02:18:41;;;;;;;1.77;0.95;;;;;;;21.27;60.44;99399.44;4462329;32;33999;-84
2022/06/26 02:21:10;;;;;;;3.12;1.33;;;;;;;21.29;60.39;99393.13;4461658;32;33816;-83
2022/06/26 02:23:42;;;;;;;1.77;1.13;;;;;;;21.36;60.13;99398.87;4462015;32;33432;-83
2022/06/26 02:26:10;;;;;;;1.17;1.08;;;;;;;21.14;61.03;99401.94;4460702;32;34353;-83
2022/06/26 02:28:40;;;;;;;1.27;1.00;;;;;;;21.26;60.45;99401.22;4460272;32;34679;-84
2022/06/26 02:31:09;;;;;;;1.90;1.25;;;;;;;21.34;60.64;99398.09;4466860;32;33949;-83
2022/06/26 02:33:38;;;;;;;3.20;1.30;;;;;;;20.80;62.70;99400.53;4461327;32;33334;-83
2022/06/26 02:36:10;;;;;;;1.55;1.20;;;;;;;20.86;62.55;99408.91;4456032;32;34268;-84
2022/06/26 02:38:41;;;;;;;2.00;1.30;;;;;;;20.82;62.75;99409.19;4461425;32;33242;-83
2022/06/26 02:41:10;;;;;;;1.23;1.00;;;;;;;20.54;63.98;99409.94;4461971;32;32593;-83
2022/06/26 02:43:39;;;;;;;2.08;1.17;;;;;;;20.71;63.37;99403.69;4458840;32;33799;-83
2022/06/26 02:46:09;;;;;;;1.50;1.10;;;;;;;20.74;63.31;99400.91;4462693;32;34111;-83
2022/06/26 02:48:39;;;;;;;1.37;1.00;;;;;;;20.76;63.30;99412.22;4458750;32;33074;-83
2022/06/26 02:51:08;;;;;;;2.08;1.15;;;;;;;20.82;62.99;99417.94;4460415;32;34591;-85
2022/06/26 02:53:37;;;;;;;1.65;1.05;;;;;;;20.77;63.16;99414.75;4462425;32;33489;-83
2022/06/26 02:56:07;;;;;;;2.25;1.33;;;;;;;20.82;63.02;99420.56;4468018;32;34390;-84
2022/06/26 02:58:36;;;;;;;1.73;1.12;;;;;;;20.87;62.83;99426.41;4467381;32;33802;-83
2022/06/26 03:01:05;;;;;;;1.90;1.20;;;;;;;20.91;62.55;99435.00;4463382;32;33477;-82
2022/06/26 03:03:35;;;;;;;2.90;1.73;;;;;;;20.88;62.63;99433.41;4463322;32;32889;-84
2022/06/26 03:06:05;;;;;;;2.35;1.50;;;;;;;20.86;63.18;99432.66;4449013;32;34379;-84
2022/06/26 03:08:33;;;;;;;1.17;1.02;;;;;;;20.99;62.59;99440.66;4458894;32;33959;-83
2022/06/26 03:11:04;;;;;;;1.90;1.15;;;;;;;21.02;62.58;99445.78;4469274;32;33197;-83
2022/06/26 03:13:34;;;;;;;2.78;1.20;;;;;;;21.11;62.29;99444.34;4454753;32;34311;-83
2022/06/26 03:16:03;;;;;;;2.37;1.55;;;;;;;21.09;62.19;99447.09;4446599;32;33310;-83
2022/06/26 03:18:31;;;;;;;1.70;1.00;;;;;;;21.35;61.38;99444.66;4448238;32;34625;-83
2022/06/26 03:21:00;;;;;;;1.40;1.20;;;;;;;21.36;61.38;99448.12;4461898;32;34424;-83
2022/06/26 03:26:15;;;;;;;2.55;1.40;;;;;;;21.24;62.03;99447.13;4466722;32;34078;-83
2022/06/26 03:28:46;;;;;;;2.17;1.37;;;;;;;21.20;62.24;99454.34;4460777;32;33992;-83
2022/06/26 03:31:15;;;;;;;1.40;1.13;;;;;;;21.28;62.14;99459.16;4460860;32;33854;-83
2022/06/26 03:33:45;;;;;;;2.30;1.42;;;;;;;21.34;62.07;99458.78;4460059;32;32779;-83
2022/06/26 03:36:14;;;;;;;1.77;1.33;;;;;;;21.44;61.91;99461.75;4460951;32;34046;-83
2022/06/26 03:38:43;;;;;;;3.25;1.52;;;;;;;21.53;61.66;99461.19;4465350;32;36342;-83
2022/06/26 03:41:13;;;;;;;2.78;1.37;;;;;;;21.54;61.77;99460.22;4461006;32;33593;-85
2022/06/26 03:43:42;;;;;;;1.80;1.20;;;;;;;21.54;61.90;99459.37;4458786;32;33319;-83
2022/06/26 03:46:12;;;;;;;2.87;1.55;;;;;;;21.65;61.35;99457.78;4457478;32;33532;-83
2022/06/26 03:48:44;;;;;;;2.75;1.15;;;;;;;21.73;61.22;99459.94;4460387;32;34485;-83
2022/06/26 03:51:13;;;;;;;2.05;1.30;;;;;;;21.85;61.12;99458.31;4466143;32;33576;-83
2022/06/26 03:53:42;;;;;;;1.98;1.30;;;;;;;21.82;61.22;99458.47;4460927;32;33090;-83
2022/06/26 03:56:13;;;;;;;2.17;1.40;;;;;;;21.91;60.96;99463.19;4460133;32;33397;-83
2022/06/26 03:58:42;;;;;;;2.72;1.45;;;;;;;22.05;60.53;99463.16;4460162;32;32042;-83
2022/06/26 04:01:14;;;;;;;2.75;1.27;;;;;;;21.93;60.90;99466.56;4458628;32;33896;-83
2022/06/26 04:03:44;;;;;;;1.73;1.30;;;;;;;22.14;59.86;99459.09;4461366;32;33351;-83
2022/06/26 04:06:14;;;;;;;1.30;1.02;;;;;;;22.05;60.31;99452.59;4465440;32;33744;-83
2022/06/26 04:08:44;;;;;;;1.57;1.13;;;;;;;21.90;60.98;99457.06;4456698;32;33888;-83
2022/06/26 04:11:14;;;;;;;2.05;1.25;;;;;;;21.87;61.48;99448.50;4460331;32;32396;-84
2022/06/26 04:13:43;;;;;;;2.65;1.42;;;;;;;22.10;60.27;99454.94;4445516;32;32898;-83
2022/06/26 04:16:17;;;;;;;2.15;1.15;;;;;;;21.95;60.77;99456.78;4454262;32;33608;-84
2022/06/26 04:18:46;;;;;;;;;;;;;;;22.02;60.97;99455.44;4466571;32;32683;-83
2022/06/26 04:21:15;;;;;;;1.75;1.27;;;;;;;22.18;60.35;99457.94;4463018;32;34795;-83
2022/06/26 04:23:44;;;;;;;2.25;1.15;;;;;;;21.88;61.84;99463.38;4461701;32;33471;-83
2022/06/26 04:26:16;;;;;;;1.45;1.20;;;;;;;22.14;61.00;99459.91;4448440;32;32541;-84
2022/06/26 04:28:45;;;;;;;3.55;1.58;;;;;;;22.34;60.42;99463.09;4458825;32;34432;-84
2022/06/26 04:31:14;;;;;;;1.62;0.90;;;;;;;22.46;60.02;99462.28;4466163;32;34462;-83
2022/06/26 04:33:45;;;;;;;1.48;1.10;;;;;;;22.49;60.40;99463.88;4464171;32;34025;-84
2022/06/26 04:36:14;;;;;;;1.83;1.60;;;;;;;22.63;59.69;99468.25;4462507;32;34421;-83
2022/06/26 04:38:42;;;;;;;1.90;1.33;;;;;;;22.79;59.13;99464.47;4459887;32;34705;-83
2022/06/26 04:43:58;;;;;;;2.33;1.33;;;;;;;22.89;59.75;99470.00;4461570;32;33440;-84
2022/06/26 04:46:27;;;;;;;3.00;1.25;;;;;;;23.08;58.99;99469.63;4466234;32;34507;-85
2022/06/26 04:48:58;;;;;;;1.73;1.12;;;;;;;23.77;57.12;99462.16;4458842;32;33906;-84
2022/06/26 04:51:27;;;;;;;3.00;1.10;;;;;;;24.78;54.05;99474.28;4462258;32;33781;-84
2022/06/26 04:53:56;;;;;;;1.92;1.00;;;;;;;25.91;50.90;99464.62;4461607;32;33340;-85
2022/06/26 04:56:25;;;;;;;2.03;1.00;;;;;;;26.74;48.43;99461.34;4461282;32;34815;-84
2022/06/26 04:58:55;;;;;;;2.05;1.15;;;;;;;27.28;46.79;99469.25;4460922;32;34667;-84
2022/06/26 05:01:24;;;;;;;1.83;1.08;;;;;;;27.74;45.42;99474.09;4467169;32;33853;-84
2022/06/26 05:03:55;;;;;;;1.87;0.95;;;;;;;27.94;45.26;99474.19;4461222;32;33348;-83
2022/06/26 05:06:26;;;;;;;1.05;0.70;;;;;;;28.10;44.79;99477.16;4460237;32;35634;-83
2022/06/26 05:08:55;;;;;;;2.12;1.00;;;;;;;27.89;44.60;99471.94;4461630;32;33171;-84
2022/06/26 05:11:24;;;;;;;0.98;0.80;;;;;;;28.67;43.25;99467.53;4458892;32;34504;-83
2022/06/26 05:13:54;;;;;;;1.23;0.80;;;;;;;28.14;44.16;99477.72;4459259;32;33436;-83
2022/06/26 05:16:25;;;;;;;1.27;0.93;;;;;;;28.41;43.59;99471.72;4460667;32;33970;-85
2022/06/26 05:18:55;;;;;;;1.33;0.80;;;;;;;28.47;43.70;99477.38;4463907;32;34909;-83
2022/06/26 05:21:25;;;;;;;1.73;1.00;;;;;;;28.56;43.03;99472.16;4462864;32;34643;-83
2022/06/26 05:23:55;;;;;;;1.58;1.10;;;;;;;28.17;44.42;99480.94;4463303;32;34202;-83
2022/06/26 05:26:24;;;;;;;1.05;0.70;;;;;;;28.06;44.29;99481.94;4453712;32;33779;-84
2022/06/26 05:28:53;;;;;;;1.67;0.90;;;;;;;27.82;45.44;99484.09;4467920;32;34545;-83
2022/06/26 05:31:23;;;;;;;1.65;0.80;;;;;;;27.90;45.31;99481.59;4462802;32;33605;-83
2022/06/26 05:33:52;;;;;;;1.08;0.80;;;;;;;27.74;45.31;99476.78;4460649;32;33492;-83
2022/06/26 05:36:21;;;;;;;0.77;0.73;;;;;;;27.62;45.54;99481.34;4450990;32;33583;-85
2022/06/26 05:38:51;;;;;;;0.75;0.70;;;;;;;27.50;46.04;99471.78;4462813;32;34077;-85
2022/06/26 05:41:20;;;;;;;2.55;1.10;;;;;;;27.07;46.97;99480.75;4468504;32;33512;-83
2022/06/26 05:43:49;;;;;;;1.17;0.80;;;;;;;26.71;47.89;99482.91;4462902;32;33404;-82
2022/06/26 05:46:18;;;;;;;1.00;0.80;;;;;;;26.85;48.61;99480.91;4467290;32;34115;-82
2022/06/26 05:48:47;;;;;;;2.42;1.17;;;;;;;27.05;47.62;99479.22;4461970;32;33575;-84
2022/06/26 05:51:20;;;;;;;2.03;0.85;;;;;;;27.16;47.37;99479.12;4462279;32;33111;-83
2022/06/26 05:53:51;;;;;;;1.17;0.80;;;;;;;27.26;47.06;99472.06;4468559;32;33013;-83
2022/06/26 05:56:22;;;;;;;2.58;1.67;;;;;;;27.31;46.85;99477.84;4462835;32;34334;-83
2022/06/26 05:58:51;;;;;;;2.87;0.90;;;;;;;27.54;46.11;99477.66;4462973;32;34156;-82
2022/06/26 06:01:20;;;;;;;0.75;0.70;;;;;;;27.19;46.54;99486.91;4461553;32;33689;-83
2022/06/26 06:03:49;;;;;;;0.95;0.70;;;;;;;26.79;47.39;99487.56;4459440;32;33281;-83
2022/06/26 06:06:19;;;;;;;1.85;1.30;;;;;;;26.55;48.73;99477.16;4466660;32;34405;-82
2022/06/26 06:08:48;;;;;;;2.55;1.00;;;;;;;26.35;49.09;99482.28;4466051;32;34866;-82
2022/06/26 06:11:18;;;;;;;1.65;1.20;;;;;;;25.91;50.11;99489.41;4463838;32;33991;-83
2022/06/26 06:13:47;;;;;;;2.13;1.07;;;;;;;26.09;49.63;99483.56;4466012;32;33105;-83
2022/06/26 06:16:16;;;;;;;1.17;0.80;;;;;;;25.82;50.13;99491.91;4462907;32;33853;-84
2022/06/26 06:18:45;;;;;;;2.10;1.00;;;;;;;25.76;50.54;99491.44;4458892;32;34034;-82
2022/06/26 06:21:14;;;;;;;1.75;1.00;;;;;;;25.75;50.65;99497.69;4468902;32;33839;-82
2022/06/26 06:23:43;;;;;;;1.50;1.10;;;;;;;26.02;50.17;99495.66;4461373;32;33478;-82
2022/06/26 06:26:12;;;;;;;1.08;0.88;;;;;;;26.01;50.35;99493.97;4462435;32;33907;-82
2022/06/26 06:28:43;;;;;;;1.20;0.80;;;;;;;25.96;50.23;99499.66;4461583;32;34446;-82
2022/06/26 06:31:12;;;;;;;0.82;0.73;;;;;;;26.10;48.93;99502.06;4462999;32;33968;-83
2022/06/26 06:33:41;;;;;;;1.23;0.90;;;;;;;26.20;49.01;99496.00;4464795;32;34073;-82
2022/06/26 06:36:13;;;;;;;1.52;0.93;;;;;;;26.13;48.24;99506.28;4453061;32;34612;-82
2022/06/26 06:38:42;;;;;;;1.20;0.77;;;;;;;26.07;49.40;99501.44;4453550;32;34733;-85
2022/06/26 06:41:11;;;;;;;1.67;0.80;;;;;;;25.98;48.50;99516.34;4462091;32;35007;-82
2022/06/26 06:43:41;;;;;;;0.77;0.70;;;;;;;26.16;47.69;99511.34;4462753;32;33388;-83
2022/06/26 06:46:16;;;;;;;1.05;0.70;;;;;;;26.30;47.87;99516.38;4461885;32;35121;-84
2022/06/26 06:48:48;;;;;;;0.93;0.60;;;;;;;26.41;46.00;99512.87;4467008;32;33950;-83
2022/06/26 06:51:18;;;;;;;0.73;0.60;;;;;;;25.87;47.95;99519.00;4462693;32;33769;-82
2022/06/26 06:53:47;;;;;;;0.68;0.68;;;;;;;26.44;46.56;99522.41;4462912;32;33924;-82
2022/06/26 06:56:16;;;;;;;1.52;0.70;;;;;;;26.20;47.57;99517.28;4460976;32;33675;-84
2022/06/26 06:58:45;;;;;;;0.65;0.60;;;;;;;26.59;46.91;99527.31;4461161;32;34800;-83
2022/06/26 07:01:13;;;;;;;0.65;0.55;;;;;;;27.09;45.76;99525.91;4466657;32;33900;-82
2022/06/26 07:03:44;;;;;;;0.80;0.60;;;;;;;26.95;46.22;99524.41;4461347;32;33321;-83
2022/06/26 07:06:13;;;;;;;0.60;0.60;;;;;;;27.34;44.35;99530.84;4458064;32;33903;-82
2022/06/26 07:08:41;;;;;;;0.60;0.60;;;;;;;27.06;45.09;99531.47;4462327;32;33882;-82
2022/06/26 07:11:10;;;;;;;0.45;0.45;;;;;;;27.26;44.78;99524.50;4458604;32;33273;-82
2022/06/26 07:13:40;;;;;;;0.57;0.57;;;;;;;27.24;44.76;99522.81;4453511;32;34092;-83
2022/06/26 07:16:08;;;;;;;0.80;0.73;;;;;;;27.39;43.92;99522.47;4454097;32;33790;-83
2022/06/26 07:18:37;;;;;;;0.70;0.57;;;;;;;27.47;44.48;99519.97;4460288;32;33999;-83
2022/06/26 07:21:08;;;;;;;0.98;0.60;;;;;;;27.83;43.48;99520.44;4461812;32;34084;-82
2022/06/26 07:23:40;;;;;;;0.60;0.60;;;;;;;27.77;42.30;99518.31;4461900;32;32782;-83
2022/06/26 07:26:10;;;;;;;0.47;0.47;;;;;;;27.57;43.43;99523.56;4461725;32;34562;-83
2022/06/26 07:28:39;;;;;;;0.65;0.50;;;;;;;27.71;43.32;99525.00;4464932;32;34055;-85
2022/06/26 07:31:08;;;;;;;0.65;0.60;;;;;;;27.73;43.26;99519.53;4461272;32;34351;-84
2022/06/26 07:36:24;;;;;;;0.57;0.50;;;;;;;27.88;41.54;99520.87;4461702;32;33944;-83
2022/06/26 07:38:54;;;;;;;1.70;0.88;;;;;;;27.93;40.79;99518.66;4461971;32;34660;-83
2022/06/26 07:41:23;;;;;;;0.88;0.50;;;;;;;27.97;42.29;99516.56;4460830;32;34663;-83
2022/06/26 07:43:59;;;;;;;1.05;0.80;;;;;;;28.15;41.28;99527.41;4460145;32;34257;-82
2022/06/26 07:46:28;;;;;;;1.62;0.65;;;;;;;28.16;40.22;99516.62;4459584;32;33897;-82
2022/06/26 07:48:57;;;;;;;0.50;0.45;;;;;;;28.06;42.67;99524.59;4463036;32;33965;-83
2022/06/26 07:51:28;;;;;;;0.80;0.60;;;;;;;27.96;39.34;99518.41;4459882;32;32547;-84
2022/06/26 07:53:57;;;;;;;1.80;0.85;;;;;;;28.11;40.63;99510.84;4468233;32;33387;-83
2022/06/26 07:56:28;;;;;;;0.62;0.47;;;;;;;28.39;39.45;99511.91;4468159;32;36362;-82
2022/06/26 07:58:57;;;;;;;0.75;0.65;;;;;;;28.50;39.52;99513.59;4459936;32;33447;-83
2022/06/26 08:01:26;;;;;;;1.15;0.57;;;;;;;28.52;40.13;99516.97;4463194;32;35200;-83
2022/06/26 08:03:55;;;;;;;0.52;0.50;;;;;;;28.67;39.14;99507.56;4460361;32;34208;-82
2022/06/26 08:06:24;;;;;;;0.82;0.70;;;;;;;28.81;39.64;99513.47;4462595;32;34574;-82
2022/06/26 08:08:55;;;;;;;0.60;0.60;;;;;;;28.80;39.55;99515.31;4466545;32;34113;-83
2022/06/26 08:11:25;;;;;;;0.40;0.40;;;;;;;28.89;37.65;99519.78;4460788;32;33611;-82
2022/06/26 08:13:53;;;;;;;1.05;0.45;;;;;;;29.04;36.42;99517.50;4461155;32;33526;-82
2022/06/26 08:16:22;;;;;;;0.60;0.60;;;;;;;29.03;37.45;99517.66;4463771;32;34656;-83
2022/06/26 08:18:52;;;;;;;0.65;0.50;;;;;;;29.13;37.19;99521.19;4455220;32;34590;-83
2022/06/26 08:24:14;;;;;;;0.50;0.47;;;;;;;29.04;37.65;99524.69;4465800;32;33438;-84
2022/06/26 08:26:42;;;;;;;1.12;0.50;;;;;;;28.96;37.16;99516.56;4460660;32;33479;-83
2022/06/26 08:29:11;;;;;;;1.62;0.73;;;;;;;29.09;37.23;99517.12;4461634;32;32182;-84
2022/06/26 08:31:40;;;;;;;0.40;0.40;;;;;;;29.13;35.73;99524.69;4460171;32;33629;-83
2022/06/26 08:34:09;;;;;;;0.68;0.50;;;;;;;28.88;37.24;99517.28;4462319;32;33485;-83
2022/06/26 08:36:39;;;;;;;0.40;0.40;;;;;;;29.08;36.83;99510.94;4465356;32;34153;-83
2022/06/26 08:39:08;;;;;;;0.85;0.45;;;;;;;29.43;35.97;99522.81;4459179;32;33542;-83
2022/06/26 08:41:40;;;;;;;1.12;0.40;;;;;;;29.39;35.26;99525.94;4453585;32;33611;-83
2022/06/26 08:44:10;;;;;;;0.52;0.52;;;;;;;29.05;36.42;99526.38;4459542;32;33345;-84
2022/06/26 08:46:40;;;;;;;1.05;0.52;;;;;;;29.44;35.60;99526.34;4457750;32;34270;-85
2022/06/26 08:49:09;;;;;;;;;;;;;;;29.13;35.33;99530.03;4460729;32;34734;-83
2022/06/26 08:51:40;;;;;;;0.40;0.40;;;;;;;29.26;35.88;99521.75;4461802;32;34596;-83
2022/06/26 08:54:10;;;;;;;0.45;0.30;;;;;;;29.40;35.53;99522.25;4462364;32;33464;-83
2022/06/26 08:56:42;;;;;;;1.23;0.23;;;;;;;29.32;34.55;99523.81;4460115;32;34099;-84
2022/06/26 08:59:11;;;;;;;1.37;0.57;;;;;;;29.15;35.59;99516.56;4457450;32;34314;-85
2022/06/26 09:01:41;;;;;;;0.30;0.30;;;;;;;29.65;35.05;99518.94;4463462;32;33522;-83
2022/06/26 09:04:11;;;;;;;0.40;0.40;;;;;;;29.85;34.43;99518.88;4465362;32;34260;-84
2022/06/26 09:06:42;;;;;;;1.00;0.50;;;;;;;29.84;33.53;99519.84;4463253;32;32136;-83
2022/06/26 09:09:15;;;;;;;0.60;0.40;;;;;;;29.91;33.61;99515.59;4462910;32;32850;-83
2022/06/26 09:11:46;;;;;;;0.62;0.47;;;;;;;29.81;34.72;99523.69;4460564;32;33141;-83
2022/06/26 09:14:18;;;;;;;0.43;0.43;;;;;;;29.91;34.32;99519.16;4462029;32;34001;-83
2022/06/26 09:16:48;;;;;;;0.30;0.30;;;;;;;29.90;33.19;99517.44;4464524;32;34579;-83
2022/06/26 09:19:19;;;;;;;0.93;0.40;;;;;;;30.05;32.87;99523.13;4464626;32;36007;-85
2022/06/26 09:21:48;;;;;;;0.95;0.37;;;;;;;30.23;33.45;99522.31;4457582;32;34466;-83
2022/06/26 09:24:18;;;;;;;0.50;0.40;;;;;;;30.47;32.58;99516.41;4466879;32;34011;-83
2022/06/26 09:27:07;;;;;;;0.43;0.37;;;;;;;29.85;33.74;99526.91;4461686;32;34685;-83
2022/06/26 09:29:35;;;;;;;0.52;0.30;;;;;;;30.04;32.55;99524.12;4461432;32;33899;-85
2022/06/26 09:32:09;;;;;;;0.25;0.25;;;;;;;30.03;33.26;99526.94;4462975;32;33764;-84
2022/06/26 09:34:38;;;;;;;1.27;0.70;;;;;;;30.24;32.61;99513.31;4449948;32;32689;-84
2022/06/26 09:37:10;;;;;;;0.37;0.37;;;;;;;29.99;34.07;99521.06;4462829;32;34472;-84
2022/06/26 09:39:39;;;;;;;1.87;0.65;;;;;;;29.66;35.43;99526.00;4461826;32;33678;-85
2022/06/26 09:42:21;;;;;;;1.23;0.75;;;;;;;30.04;33.96;99508.09;4456913;32;33679;-84
2022/06/26 09:44:51;;;;;;;0.50;0.40;;;;;;;29.81;34.58;99512.16;4458108;32;33239;-84
2022/06/26 09:47:24;;;;;;;0.60;0.40;;;;;;;30.06;34.21;99507.91;4464878;32;33492;-85
2022/06/26 09:49:54;;;;;;;0.45;0.40;;;;;;;30.56;33.62;99512.81;4451895;32;34670;-84
2022/06/26 09:52:25;;;;;;;0.40;0.37;;;;;;;30.57;33.00;99514.53;4459275;32;34243;-84
2022/06/26 09:54:55;;;;;;;0.98;0.70;;;;;;;30.98;32.93;99509.53;4458496;32;34452;-84
2022/06/26 09:57:29;;;;;;;2.33;0.62;;;;;;;30.83;32.98;99507.41;4454398;32;34048;-83
2022/06/26 09:59:58;;;;;;;1.08;0.60;;;;;;;30.51;33.68;99504.41;4465693;32;33726;-84
2022/06/26 10:08:04;;;;;;;3.80;0.77;;;;;;;31.00;32.81;99507.53;4457739;32;34210;-84
2022/06/26 10:10:35;;;;;;;0.70;0.62;;;;;;;31.07;32.30;99505.91;4445123;32;34530;-84
2022/06/26 10:13:07;;;;;;;0.75;0.43;;;;;;;30.99;32.39;99508.53;4451331;32;33444;-85
2022/06/26 10:15:42;;;;;;;0.57;0.30;;;;;;;31.03;32.70;99508.06;4466288;32;34150;-84
2022/06/26 10:18:23;;;;;;;0.57;0.40;;;;;;;31.29;31.12;99504.56;4458121;32;32755;-84
2022/06/26 10:20:54;;;;;;;0.45;0.30;;;;;;;31.11;31.75;99496.56;4453509;32;34769;-85
2022/06/26 10:23:33;;;;;;;0.50;0.50;;;;;;;31.43;32.38;99501.31;4458665;32;33570;-84
2022/06/26 10:26:12;;;;;;;0.68;0.60;;;;;;;31.30;32.37;99500.88;4454043;32;34116;-84
2022/06/26 10:28:59;;;;;;;1.10;0.60;;;;;;;30.79;33.68;99497.97;4452192;32;34002;-84
2022/06/26 10:31:33;;;;;;;0.60;0.60;;;;;;;31.48;32.38;99489.28;4449275;32;32613;-84
2022/06/26 10:34:11;;;;;;;0.40;0.40;;;;;;;31.53;32.89;99490.47;4458083;32;33091;-84
2022/06/26 10:36:40;;;;;;;1.15;0.50;;;;;;;31.82;31.18;99500.84;4455089;32;32959;-85
2022/06/26 10:39:09;;;;;;;0.65;0.35;;;;;;;31.67;29.78;99495.22;4444429;32;33455;-85
2022/06/26 10:44:35;;;;;;;2.10;0.57;;;;;;;31.40;31.52;99496.28;4449199;32;34378;-84
2022/06/26 10:47:13;;;;;;;0.55;0.32;;;;;;;31.48;31.16;99497.31;4461095;32;34141;-84
2022/06/26 10:49:53;;;;;;;0.30;0.30;;;;;;;31.37;31.72;99498.41;4460365;32;33792;-84
2022/06/26 10:52:27;;;;;;;0.70;0.43;;;;;;;31.73;31.13;99491.09;4465659;32;34710;-85
2022/06/26 10:54:59;;;;;;;0.70;0.55;;;;;;;31.63;31.46;99499.25;4464643;32;35417;-84
2022/06/26 10:57:34;;;;;;;0.88;0.62;;;;;;;31.88;31.62;99497.50;4460497;32;33157;-84
2022/06/26 11:00:08;;;;;;;0.93;0.47;;;;;;;31.54;31.66;99491.34;4460546;32;34260;-84
2022/06/26 11:02:39;;;;;;;0.77;0.57;;;;;;;31.58;32.13;99488.16;4446735;32;33536;-85
2022/06/26 11:05:10;;;;;;;18.67;0.75;;;;;;;31.59;31.84;99494.38;4460367;32;34342;-84
2022/06/26 11:07:43;;;;;;;1.30;0.60;;;;;;;31.91;32.65;99488.28;4466565;32;33156;-84
2022/06/26 11:10:14;;;;;;;0.62;0.40;;;;;;;32.33;31.45;99494.62;4458545;32;33597;-85
2022/06/26 11:12:45;;;;;;;1.37;0.60;;;;;;;32.44;31.15;99495.16;4452371;32;33895;-85
2022/06/26 11:15:31;;;;;;;0.98;0.60;;;;;;;32.60;30.14;99494.38;4456728;32;34505;-84
2022/06/26 11:18:01;;;;;;;0.60;0.50;;;;;;;32.76;30.08;99488.13;4459041;32;34229;-84
2022/06/26 11:20:47;;;;;;;1.08;0.40;;;;;;;33.36;29.22;99490.44;4458191;32;34052;-84
2022/06/26 11:23:19;;;;;;;0.73;0.32;;;;;;;33.47;28.20;99494.62;4460430;32;34078;-83
2022/06/26 11:25:56;;;;;;;0.98;0.50;;;;;;;33.68;28.04;99493.22;4455316;32;33841;-85
2022/06/26 11:28:29;;;;;;;1.00;0.60;;;;;;;33.85;28.14;99494.00;4445806;32;32687;-85
2022/06/26 11:31:00;;;;;;;0.70;0.50;;;;;;;33.98;28.51;99488.91;4461067;32;33916;-83
2022/06/26 11:33:31;;;;;;;1.45;0.77;;;;;;;34.38;28.18;99479.78;4460511;32;34621;-84
2022/06/26 11:36:05;;;;;;;0.77;0.40;;;;;;;34.61;27.48;99484.34;4460605;32;34613;-84
2022/06/26 11:38:35;;;;;;;2.25;0.50;;;;;;;34.88;27.26;99488.31;4461154;32;33402;-84
2022/06/26 11:41:06;;;;;;;0.73;0.40;;;;;;;35.18;26.42;99486.53;4457302;32;33096;-84
2022/06/26 11:43:35;;;;;;;3.45;0.50;;;;;;;35.30;25.74;99491.47;4444975;32;34763;-84
2022/06/26 11:46:06;;;;;;;0.40;0.40;;;;;;;35.32;24.23;99481.31;4445117;32;33429;-85
2022/06/26 11:48:34;;;;;;;0.43;0.30;;;;;;;35.70;23.79;99475.84;4445933;32;32466;-85
2022/06/26 11:51:03;;;;;;;0.68;0.40;;;;;;;35.90;22.67;99485.03;4447136;32;34004;-84
2022/06/26 11:53:33;;;;;;;0.70;0.57;;;;;;;36.10;23.20;99480.75;4457551;32;33854;-84
2022/06/26 11:56:05;;;;;;;0.67;0.40;;;;;;;36.53;22.54;99480.75;4450089;32;33429;-86
2022/06/26 11:58:35;;;;;;;0.73;0.40;;;;;;;36.95;22.01;99480.94;4450476;32;34112;-84
2022/06/26 12:01:08;;;;;;;1.10;0.52;;;;;;;37.34;21.11;99474.97;4453648;32;34105;-85
2022/06/26 12:03:38;;;;;;;0.65;0.32;;;;;;;37.05;21.23;99473.34;4448580;32;34063;-85
2022/06/26 12:06:07;;;;;;;1.27;0.47;;;;;;;37.68;21.35;99476.00;4448669;32;32771;-85
2022/06/26 12:08:36;;;;;;;0.70;0.50;;;;;;;37.90;20.73;99468.59;4457608;32;32987;-85
2022/06/26 12:11:05;;;;;;;1.00;0.52;;;;;;;38.04;19.01;99469.50;4451614;32;33665;-85